sensor_id;sensor_type;location;lat;lon;timestamp;P1;durP1;ratioP1;P2;durP2;ratioP2
32934;SDS011;19292;51.532;7.650;2023-11-21T00:01:01;6.22;;;3.20;;
32934;SDS011;19292;51.532;7.650;2023-11-21T00:03:29;2.63;;;2.42;;
32934;SDS011;19292;51.532;7.650;2023-11-21T00:05:55;3.72;;;2.92;;
32934;SDS011;19292;51.532;7.650;2023-11-21T00:08:20;3.33;;;3.03;;
32934;SDS011;19292;51.532;7.650;2023-11-21T00:10:47;7.05;;;3.17;;
32934;SDS011;19292;51.532;7.650;2023-11-21T00:13:15;3.40;;;3.10;;
32934;SDS011;19292;51.532;7.650;2023-11-21T00:15:43;3.65;;;3.28;;
32934;SDS011;19292;51.532;7.650;2023-11-21T00:18:09;3.30;;;3.00;;
32934;SDS011;19292;51.532;7.650;2023-11-21T00:20:35;4.35;;;3.90;;
32934;SDS011;19292;51.532;7.650;2023-11-21T00:23:00;4.07;;;3.25;;
32934;SDS011;19292;51.532;7.650;2023-11-21T00:25:27;3.00;;;2.80;;
32934;SDS011;19292;51.532;7.650;2023-11-21T00:27:52;3.53;;;3.03;;
32934;SDS011;19292;51.532;7.650;2023-11-21T00:30:20;4.75;;;3.42;;
32934;SDS011;19292;51.532;7.650;2023-11-21T00:32:47;3.35;;;3.05;;
32934;SDS011;19292;51.532;7.650;2023-11-21T00:35:13;7.57;;;2.72;;
32934;SDS011;19292;51.532;7.650;2023-11-21T00:37:38;2.33;;;2.22;;
32934;SDS011;19292;51.532;7.650;2023-11-21T00:40:04;5.43;;;3.10;;
32934;SDS011;19292;51.532;7.650;2023-11-21T00:42:32;3.45;;;2.97;;
32934;SDS011;19292;51.532;7.650;2023-11-21T00:44:58;2.63;;;2.42;;
32934;SDS011;19292;51.532;7.650;2023-11-21T00:47:24;7.55;;;4.53;;
32934;SDS011;19292;51.532;7.650;2023-11-21T00:49:54;2.53;;;2.30;;
32934;SDS011;19292;51.532;7.650;2023-11-21T00:52:20;7.68;;;3.63;;
32934;SDS011;19292;51.532;7.650;2023-11-21T00:54:47;2.75;;;2.55;;
32934;SDS011;19292;51.532;7.650;2023-11-21T00:57:13;5.07;;;3.08;;
32934;SDS011;19292;51.532;7.650;2023-11-21T00:59:38;12.25;;;3.50;;
32934;SDS011;19292;51.532;7.650;2023-11-21T01:02:04;4.03;;;3.80;;
32934;SDS011;19292;51.532;7.650;2023-11-21T01:04:30;3.50;;;3.17;;
32934;SDS011;19292;51.532;7.650;2023-11-21T01:06:56;4.90;;;3.20;;
32934;SDS011;19292;51.532;7.650;2023-11-21T01:09:22;3.97;;;3.67;;
32934;SDS011;19292;51.532;7.650;2023-11-21T01:11:47;6.60;;;4.28;;
32934;SDS011;19292;51.532;7.650;2023-11-21T01:14:12;3.42;;;3.22;;
32934;SDS011;19292;51.532;7.650;2023-11-21T01:16:40;4.93;;;4.47;;
32934;SDS011;19292;51.532;7.650;2023-11-21T01:19:05;5.22;;;3.13;;
32934;SDS011;19292;51.532;7.650;2023-11-21T01:21:33;4.85;;;4.15;;
32934;SDS011;19292;51.532;7.650;2023-11-21T01:24:01;4.55;;;3.30;;
32934;SDS011;19292;51.532;7.650;2023-11-21T01:26:27;3.13;;;2.92;;
32934;SDS011;19292;51.532;7.650;2023-11-21T01:28:53;3.88;;;3.53;;
32934;SDS011;19292;51.532;7.650;2023-11-21T01:31:23;8.32;;;3.03;;
32934;SDS011;19292;51.532;7.650;2023-11-21T01:33:48;2.95;;;2.75;;
32934;SDS011;19292;51.532;7.650;2023-11-21T01:36:16;3.70;;;3.40;;
32934;SDS011;19292;51.532;7.650;2023-11-21T01:38:41;4.40;;;3.65;;
32934;SDS011;19292;51.532;7.650;2023-11-21T01:41:10;14.55;;;5.20;;
32934;SDS011;19292;51.532;7.650;2023-11-21T01:43:38;3.83;;;3.42;;
32934;SDS011;19292;51.532;7.650;2023-11-21T01:46:03;14.48;;;3.20;;
32934;SDS011;19292;51.532;7.650;2023-11-21T01:48:31;3.85;;;3.55;;
32934;SDS011;19292;51.532;7.650;2023-11-21T01:50:56;3.33;;;3.03;;
32934;SDS011;19292;51.532;7.650;2023-11-21T01:53:23;4.30;;;3.40;;
32934;SDS011;19292;51.532;7.650;2023-11-21T01:55:53;4.15;;;3.78;;
32934;SDS011;19292;51.532;7.650;2023-11-21T01:58:19;8.00;;;3.13;;
32934;SDS011;19292;51.532;7.650;2023-11-21T02:00:48;4.50;;;2.92;;
32934;SDS011;19292;51.532;7.650;2023-11-21T02:03:16;7.95;;;2.50;;
32934;SDS011;19292;51.532;7.650;2023-11-21T02:05:41;3.78;;;3.03;;
32934;SDS011;19292;51.532;7.650;2023-11-21T02:08:09;5.45;;;3.33;;
32934;SDS011;19292;51.532;7.650;2023-11-21T02:10:37;4.18;;;3.50;;
32934;SDS011;19292;51.532;7.650;2023-11-21T02:13:02;7.07;;;4.32;;
32934;SDS011;19292;51.532;7.650;2023-11-21T02:15:28;3.05;;;2.60;;
32934;SDS011;19292;51.532;7.650;2023-11-21T02:17:59;6.80;;;3.03;;
32934;SDS011;19292;51.532;7.650;2023-11-21T02:20:25;4.32;;;4.00;;
32934;SDS011;19292;51.532;7.650;2023-11-21T02:25:26;2.95;;;2.65;;
32934;SDS011;19292;51.532;7.650;2023-11-21T02:27:53;3.28;;;2.97;;
32934;SDS011;19292;51.532;7.650;2023-11-21T02:30:20;3.55;;;3.08;;
32934;SDS011;19292;51.532;7.650;2023-11-21T02:32:46;3.25;;;3.00;;
32934;SDS011;19292;51.532;7.650;2023-11-21T02:35:14;3.13;;;2.83;;
32934;SDS011;19292;51.532;7.650;2023-11-21T02:37:41;4.78;;;3.60;;
32934;SDS011;19292;51.532;7.650;2023-11-21T02:40:08;10.07;;;5.60;;
32934;SDS011;19292;51.532;7.650;2023-11-21T02:42:34;4.30;;;3.95;;
32934;SDS011;19292;51.532;7.650;2023-11-21T02:45:00;4.20;;;3.72;;
32934;SDS011;19292;51.532;7.650;2023-11-21T02:47:25;6.20;;;4.50;;
32934;SDS011;19292;51.532;7.650;2023-11-21T02:49:51;2.75;;;2.17;;
32934;SDS011;19292;51.532;7.650;2023-11-21T02:52:17;6.20;;;3.17;;
32934;SDS011;19292;51.532;7.650;2023-11-21T02:54:43;3.47;;;2.50;;
32934;SDS011;19292;51.532;7.650;2023-11-21T02:57:10;4.45;;;2.38;;
32934;SDS011;19292;51.532;7.650;2023-11-21T02:59:35;2.45;;;2.25;;
32934;SDS011;19292;51.532;7.650;2023-11-21T03:02:01;2.95;;;2.33;;
32934;SDS011;19292;51.532;7.650;2023-11-21T03:04:28;7.07;;;2.85;;
32934;SDS011;19292;51.532;7.650;2023-11-21T03:06:53;3.35;;;2.40;;
32934;SDS011;19292;51.532;7.650;2023-11-21T03:09:21;3.08;;;2.72;;
32934;SDS011;19292;51.532;7.650;2023-11-21T03:11:46;5.03;;;3.10;;
32934;SDS011;19292;51.532;7.650;2023-11-21T03:14:12;3.40;;;2.20;;
32934;SDS011;19292;51.532;7.650;2023-11-21T03:16:37;5.28;;;3.00;;
32934;SDS011;19292;51.532;7.650;2023-11-21T03:19:03;4.03;;;3.05;;
32934;SDS011;19292;51.532;7.650;2023-11-21T03:21:30;3.28;;;2.35;;
32934;SDS011;19292;51.532;7.650;2023-11-21T03:23:57;4.70;;;2.50;;
32934;SDS011;19292;51.532;7.650;2023-11-21T03:26:25;4.78;;;3.13;;
32934;SDS011;19292;51.532;7.650;2023-11-21T03:28:50;4.07;;;2.55;;
32934;SDS011;19292;51.532;7.650;2023-11-21T03:31:20;6.85;;;3.63;;
32934;SDS011;19292;51.532;7.650;2023-11-21T03:33:46;8.25;;;3.63;;
32934;SDS011;19292;51.532;7.650;2023-11-21T03:36:12;4.30;;;3.22;;
32934;SDS011;19292;51.532;7.650;2023-11-21T03:38:40;3.95;;;3.13;;
32934;SDS011;19292;51.532;7.650;2023-11-21T03:41:06;2.90;;;2.33;;
32934;SDS011;19292;51.532;7.650;2023-11-21T03:43:32;4.28;;;2.78;;
32934;SDS011;19292;51.532;7.650;2023-11-21T03:45:57;6.20;;;2.70;;
32934;SDS011;19292;51.532;7.650;2023-11-21T03:48:22;5.75;;;3.65;;
32934;SDS011;19292;51.532;7.650;2023-11-21T03:50:50;4.00;;;2.80;;
32934;SDS011;19292;51.532;7.650;2023-11-21T03:53:15;3.05;;;2.50;;
32934;SDS011;19292;51.532;7.650;2023-11-21T03:55:43;3.20;;;2.72;;
32934;SDS011;19292;51.532;7.650;2023-11-21T03:58:08;4.40;;;3.40;;
32934;SDS011;19292;51.532;7.650;2023-11-21T04:00:33;6.95;;;2.70;;
32934;SDS011;19292;51.532;7.650;2023-11-21T04:03:01;4.82;;;3.60;;
32934;SDS011;19292;51.532;7.650;2023-11-21T04:05:27;5.13;;;3.42;;
32934;SDS011;19292;51.532;7.650;2023-11-21T04:07:55;4.53;;;3.47;;
32934;SDS011;19292;51.532;7.650;2023-11-21T04:10:20;7.10;;;3.17;;
32934;SDS011;19292;51.532;7.650;2023-11-21T04:12:46;4.85;;;4.05;;
32934;SDS011;19292;51.532;7.650;2023-11-21T04:15:12;3.33;;;3.03;;
32934;SDS011;19292;51.532;7.650;2023-11-21T04:17:42;8.15;;;3.40;;
32934;SDS011;19292;51.532;7.650;2023-11-21T04:20:10;4.03;;;2.30;;
32934;SDS011;19292;51.532;7.650;2023-11-21T04:22:42;4.47;;;2.85;;
32934;SDS011;19292;51.532;7.650;2023-11-21T04:25:10;3.53;;;2.90;;
32934;SDS011;19292;51.532;7.650;2023-11-21T04:27:36;4.82;;;3.83;;
32934;SDS011;19292;51.532;7.650;2023-11-21T04:30:03;5.55;;;3.50;;
32934;SDS011;19292;51.532;7.650;2023-11-21T04:32:29;4.38;;;3.97;;
32934;SDS011;19292;51.532;7.650;2023-11-21T04:34:57;5.10;;;3.25;;
32934;SDS011;19292;51.532;7.650;2023-11-21T04:37:24;3.83;;;3.42;;
32934;SDS011;19292;51.532;7.650;2023-11-21T04:39:54;4.00;;;3.45;;
32934;SDS011;19292;51.532;7.650;2023-11-21T04:42:20;4.82;;;3.83;;
32934;SDS011;19292;51.532;7.650;2023-11-21T04:44:45;3.83;;;3.30;;
32934;SDS011;19292;51.532;7.650;2023-11-21T04:47:10;5.05;;;3.88;;
32934;SDS011;19292;51.532;7.650;2023-11-21T04:49:41;20.92;;;4.40;;
32934;SDS011;19292;51.532;7.650;2023-11-21T04:52:07;3.50;;;3.20;;
32934;SDS011;19292;51.532;7.650;2023-11-21T04:54:34;6.97;;;4.00;;
32934;SDS011;19292;51.532;7.650;2023-11-21T04:57:02;5.90;;;3.95;;
32934;SDS011;19292;51.532;7.650;2023-11-21T04:59:27;3.95;;;3.28;;
32934;SDS011;19292;51.532;7.650;2023-11-21T05:01:57;10.02;;;4.05;;
32934;SDS011;19292;51.532;7.650;2023-11-21T05:04:25;6.33;;;3.77;;
32934;SDS011;19292;51.532;7.650;2023-11-21T05:06:55;5.22;;;3.67;;
32934;SDS011;19292;51.532;7.650;2023-11-21T05:09:21;8.07;;;4.07;;
32934;SDS011;19292;51.532;7.650;2023-11-21T05:11:48;6.20;;;5.03;;
32934;SDS011;19292;51.532;7.650;2023-11-21T05:14:13;6.65;;;3.75;;
32934;SDS011;19292;51.532;7.650;2023-11-21T05:16:39;4.63;;;3.97;;
32934;SDS011;19292;51.532;7.650;2023-11-21T05:19:04;4.22;;;3.63;;
32934;SDS011;19292;51.532;7.650;2023-11-21T05:21:30;8.30;;;3.63;;
32934;SDS011;19292;51.532;7.650;2023-11-21T05:23:58;5.95;;;4.63;;
32934;SDS011;19292;51.532;7.650;2023-11-21T05:26:24;2.70;;;2.42;;
32934;SDS011;19292;51.532;7.650;2023-11-21T05:28:49;9.27;;;3.45;;
32934;SDS011;19292;51.532;7.650;2023-11-21T05:31:19;5.03;;;3.13;;
32934;SDS011;19292;51.532;7.650;2023-11-21T05:33:45;3.33;;;2.40;;
32934;SDS011;19292;51.532;7.650;2023-11-21T05:36:12;6.40;;;3.15;;
32934;SDS011;19292;51.532;7.650;2023-11-21T05:38:38;5.82;;;3.53;;
32934;SDS011;19292;51.532;7.650;2023-11-21T05:41:03;3.70;;;2.95;;
32934;SDS011;19292;51.532;7.650;2023-11-21T05:43:29;7.05;;;3.10;;
32934;SDS011;19292;51.532;7.650;2023-11-21T05:45:55;8.52;;;3.63;;
32934;SDS011;19292;51.532;7.650;2023-11-21T05:48:21;7.82;;;3.33;;
32934;SDS011;19292;51.532;7.650;2023-11-21T05:50:46;4.35;;;3.25;;
32934;SDS011;19292;51.532;7.650;2023-11-21T05:53:14;4.75;;;2.97;;
32934;SDS011;19292;51.532;7.650;2023-11-21T05:55:44;6.05;;;3.40;;
32934;SDS011;19292;51.532;7.650;2023-11-21T05:58:09;11.80;;;3.03;;
32934;SDS011;19292;51.532;7.650;2023-11-21T06:00:35;4.22;;;3.50;;
32934;SDS011;19292;51.532;7.650;2023-11-21T06:03:03;4.43;;;3.08;;
32934;SDS011;19292;51.532;7.650;2023-11-21T06:05:29;5.72;;;3.85;;
32934;SDS011;19292;51.532;7.650;2023-11-21T06:07:57;6.28;;;4.40;;
32934;SDS011;19292;51.532;7.650;2023-11-21T06:10:28;5.80;;;4.13;;
32934;SDS011;19292;51.532;7.650;2023-11-21T06:12:58;5.60;;;3.63;;
32934;SDS011;19292;51.532;7.650;2023-11-21T06:15:26;8.43;;;3.50;;
32934;SDS011;19292;51.532;7.650;2023-11-21T06:17:54;10.07;;;3.80;;
32934;SDS011;19292;51.532;7.650;2023-11-21T06:20:19;7.35;;;4.07;;
32934;SDS011;19292;51.532;7.650;2023-11-21T06:22:46;5.03;;;3.45;;
32934;SDS011;19292;51.532;7.650;2023-11-21T06:25:17;8.80;;;4.70;;
32934;SDS011;19292;51.532;7.650;2023-11-21T06:27:43;8.00;;;3.90;;
32934;SDS011;19292;51.532;7.650;2023-11-21T06:30:10;3.22;;;2.47;;
32934;SDS011;19292;51.532;7.650;2023-11-21T06:32:36;5.45;;;3.53;;
32934;SDS011;19292;51.532;7.650;2023-11-21T06:35:05;6.25;;;3.20;;
32934;SDS011;19292;51.532;7.650;2023-11-21T06:37:34;4.40;;;3.30;;
32934;SDS011;19292;51.532;7.650;2023-11-21T06:40:00;9.65;;;3.83;;
32934;SDS011;19292;51.532;7.650;2023-11-21T06:42:29;4.22;;;3.15;;
32934;SDS011;19292;51.532;7.650;2023-11-21T06:44:54;6.75;;;4.05;;
32934;SDS011;19292;51.532;7.650;2023-11-21T06:47:22;8.55;;;5.35;;
32934;SDS011;19292;51.532;7.650;2023-11-21T06:49:50;3.55;;;2.75;;
32934;SDS011;19292;51.532;7.650;2023-11-21T06:52:18;14.20;;;8.77;;
32934;SDS011;19292;51.532;7.650;2023-11-21T06:54:44;13.85;;;6.72;;
32934;SDS011;19292;51.532;7.650;2023-11-21T06:57:10;10.88;;;5.43;;
32934;SDS011;19292;51.532;7.650;2023-11-21T06:59:40;9.05;;;5.68;;
32934;SDS011;19292;51.532;7.650;2023-11-21T07:02:05;10.40;;;7.45;;
32934;SDS011;19292;51.532;7.650;2023-11-21T07:04:31;8.77;;;6.40;;
32934;SDS011;19292;51.532;7.650;2023-11-21T07:07:01;8.35;;;6.03;;
32934;SDS011;19292;51.532;7.650;2023-11-21T07:09:29;11.95;;;4.22;;
32934;SDS011;19292;51.532;7.650;2023-11-21T07:11:56;8.07;;;3.22;;
32934;SDS011;19292;51.532;7.650;2023-11-21T07:14:23;5.38;;;3.53;;
32934;SDS011;19292;51.532;7.650;2023-11-21T07:16:49;4.55;;;3.03;;
32934;SDS011;19292;51.532;7.650;2023-11-21T07:19:14;5.97;;;3.75;;
32934;SDS011;19292;51.532;7.650;2023-11-21T07:21:40;4.97;;;3.78;;
32934;SDS011;19292;51.532;7.650;2023-11-21T07:24:05;14.95;;;4.18;;
32934;SDS011;19292;51.532;7.650;2023-11-21T07:26:35;5.07;;;2.92;;
32934;SDS011;19292;51.532;7.650;2023-11-21T07:29:03;3.22;;;2.95;;
32934;SDS011;19292;51.532;7.650;2023-11-21T07:31:31;9.60;;;4.90;;
32934;SDS011;19292;51.532;7.650;2023-11-21T07:33:59;5.78;;;3.90;;
32934;SDS011;19292;51.532;7.650;2023-11-21T07:36:24;8.90;;;4.28;;
32934;SDS011;19292;51.532;7.650;2023-11-21T07:38:50;5.78;;;3.25;;
32934;SDS011;19292;51.532;7.650;2023-11-21T07:41:20;10.07;;;5.20;;
32934;SDS011;19292;51.532;7.650;2023-11-21T07:43:46;6.15;;;3.83;;
32934;SDS011;19292;51.532;7.650;2023-11-21T07:46:11;5.57;;;3.45;;
32934;SDS011;19292;51.532;7.650;2023-11-21T07:48:39;7.82;;;4.13;;
32934;SDS011;19292;51.532;7.650;2023-11-21T07:51:07;7.40;;;4.95;;
32934;SDS011;19292;51.532;7.650;2023-11-21T07:53:35;6.55;;;4.47;;
32934;SDS011;19292;51.532;7.650;2023-11-21T07:56:04;5.43;;;3.58;;
32934;SDS011;19292;51.532;7.650;2023-11-21T07:58:30;5.30;;;3.70;;
32934;SDS011;19292;51.532;7.650;2023-11-21T08:00:56;10.52;;;5.63;;
32934;SDS011;19292;51.532;7.650;2023-11-21T08:03:23;3.53;;;2.45;;
32934;SDS011;19292;51.532;7.650;2023-11-21T08:05:52;10.45;;;5.55;;
32934;SDS011;19292;51.532;7.650;2023-11-21T08:08:17;6.45;;;4.55;;
32934;SDS011;19292;51.532;7.650;2023-11-21T08:10:45;8.45;;;4.57;;
32934;SDS011;19292;51.532;7.650;2023-11-21T08:13:13;7.88;;;4.53;;
32934;SDS011;19292;51.532;7.650;2023-11-21T08:15:41;9.38;;;5.50;;
32934;SDS011;19292;51.532;7.650;2023-11-21T08:18:12;10.02;;;3.15;;
32934;SDS011;19292;51.532;7.650;2023-11-21T08:20:43;18.88;;;4.75;;
32934;SDS011;19292;51.532;7.650;2023-11-21T08:23:17;8.82;;;4.85;;
32934;SDS011;19292;51.532;7.650;2023-11-21T08:25:43;7.68;;;5.70;;
32934;SDS011;19292;51.532;7.650;2023-11-21T08:28:08;7.63;;;4.72;;
32934;SDS011;19292;51.532;7.650;2023-11-21T08:30:36;8.30;;;4.78;;
32934;SDS011;19292;51.532;7.650;2023-11-21T08:33:02;5.47;;;4.30;;
32934;SDS011;19292;51.532;7.650;2023-11-21T08:35:31;5.90;;;4.22;;
32934;SDS011;19292;51.532;7.650;2023-11-21T08:37:56;10.65;;;4.88;;
32934;SDS011;19292;51.532;7.650;2023-11-21T08:40:22;6.63;;;4.22;;
32934;SDS011;19292;51.532;7.650;2023-11-21T08:42:50;9.13;;;5.10;;
32934;SDS011;19292;51.532;7.650;2023-11-21T08:45:18;11.30;;;10.38;;
32934;SDS011;19292;51.532;7.650;2023-11-21T08:47:46;6.55;;;4.78;;
32934;SDS011;19292;51.532;7.650;2023-11-21T08:50:12;14.20;;;5.80;;
32934;SDS011;19292;51.532;7.650;2023-11-21T08:52:41;10.75;;;4.15;;
32934;SDS011;19292;51.532;7.650;2023-11-21T08:55:07;19.30;;;5.65;;
32934;SDS011;19292;51.532;7.650;2023-11-21T08:57:38;7.43;;;4.32;;
32934;SDS011;19292;51.532;7.650;2023-11-21T09:00:04;8.43;;;5.25;;
32934;SDS011;19292;51.532;7.650;2023-11-21T09:02:38;14.13;;;6.60;;
32934;SDS011;19292;51.532;7.650;2023-11-21T09:05:07;7.90;;;6.20;;
32934;SDS011;19292;51.532;7.650;2023-11-21T09:07:36;7.93;;;5.03;;
32934;SDS011;19292;51.532;7.650;2023-11-21T09:10:03;10.48;;;5.53;;
32934;SDS011;19292;51.532;7.650;2023-11-21T09:12:31;6.20;;;4.90;;
32934;SDS011;19292;51.532;7.650;2023-11-21T09:14:57;7.35;;;4.03;;
32934;SDS011;19292;51.532;7.650;2023-11-21T09:17:22;10.15;;;5.47;;
32934;SDS011;19292;51.532;7.650;2023-11-21T09:19:48;9.55;;;5.57;;
32934;SDS011;19292;51.532;7.650;2023-11-21T09:22:16;7.80;;;4.97;;
32934;SDS011;19292;51.532;7.650;2023-11-21T09:24:42;7.47;;;4.43;;
32934;SDS011;19292;51.532;7.650;2023-11-21T09:27:07;6.43;;;5.45;;
32934;SDS011;19292;51.532;7.650;2023-11-21T09:29:34;21.55;;;6.53;;
32934;SDS011;19292;51.532;7.650;2023-11-21T09:32:00;5.10;;;4.53;;
32934;SDS011;19292;51.532;7.650;2023-11-21T09:34:26;13.20;;;6.05;;
32934;SDS011;19292;51.532;7.650;2023-11-21T09:36:52;12.80;;;5.63;;
32934;SDS011;19292;51.532;7.650;2023-11-21T09:39:18;10.77;;;6.25;;
32934;SDS011;19292;51.532;7.650;2023-11-21T09:41:52;8.75;;;6.10;;
32934;SDS011;19292;51.532;7.650;2023-11-21T09:44:32;10.35;;;6.47;;
32934;SDS011;19292;51.532;7.650;2023-11-21T09:47:00;7.70;;;5.07;;
32934;SDS011;19292;51.532;7.650;2023-11-21T09:49:29;8.30;;;6.55;;
32934;SDS011;19292;51.532;7.650;2023-11-21T09:52:00;15.38;;;6.28;;
32934;SDS011;19292;51.532;7.650;2023-11-21T09:54:29;12.93;;;6.47;;
32934;SDS011;19292;51.532;7.650;2023-11-21T09:56:58;12.52;;;5.95;;
32934;SDS011;19292;51.532;7.650;2023-11-21T09:59:24;10.55;;;6.60;;
32934;SDS011;19292;51.532;7.650;2023-11-21T10:01:54;11.90;;;5.55;;
32934;SDS011;19292;51.532;7.650;2023-11-21T10:04:19;6.65;;;5.95;;
32934;SDS011;19292;51.532;7.650;2023-11-21T10:06:45;11.68;;;6.60;;
32934;SDS011;19292;51.532;7.650;2023-11-21T10:09:14;11.88;;;6.85;;
32934;SDS011;19292;51.532;7.650;2023-11-21T10:11:41;13.30;;;7.38;;
32934;SDS011;19292;51.532;7.650;2023-11-21T10:14:12;11.13;;;7.15;;
32934;SDS011;19292;51.532;7.650;2023-11-21T10:16:39;16.67;;;8.20;;
32934;SDS011;19292;51.532;7.650;2023-11-21T10:19:09;14.70;;;6.80;;
32934;SDS011;19292;51.532;7.650;2023-11-21T10:21:37;12.45;;;7.20;;
32934;SDS011;19292;51.532;7.650;2023-11-21T10:24:08;16.80;;;7.53;;
32934;SDS011;19292;51.532;7.650;2023-11-21T10:26:36;10.93;;;6.55;;
32934;SDS011;19292;51.532;7.650;2023-11-21T10:29:03;11.00;;;6.15;;
32934;SDS011;19292;51.532;7.650;2023-11-21T10:31:32;13.18;;;7.78;;
32934;SDS011;19292;51.532;7.650;2023-11-21T10:34:14;16.60;;;7.85;;
32934;SDS011;19292;51.532;7.650;2023-11-21T10:36:44;8.02;;;6.47;;
32934;SDS011;19292;51.532;7.650;2023-11-21T10:39:14;10.00;;;7.05;;
32934;SDS011;19292;51.532;7.650;2023-11-21T10:41:44;10.30;;;7.63;;
32934;SDS011;19292;51.532;7.650;2023-11-21T10:44:15;15.18;;;7.40;;
32934;SDS011;19292;51.532;7.650;2023-11-21T10:46:52;13.98;;;6.88;;
32934;SDS011;19292;51.532;7.650;2023-11-21T10:49:24;12.98;;;7.38;;
32934;SDS011;19292;51.532;7.650;2023-11-21T10:51:50;17.08;;;7.53;;
32934;SDS011;19292;51.532;7.650;2023-11-21T10:54:18;14.63;;;8.05;;
32934;SDS011;19292;51.532;7.650;2023-11-21T10:56:50;15.52;;;7.18;;
32934;SDS011;19292;51.532;7.650;2023-11-21T10:59:21;9.70;;;6.65;;
32934;SDS011;19292;51.532;7.650;2023-11-21T11:01:50;9.93;;;5.97;;
32934;SDS011;19292;51.532;7.650;2023-11-21T11:04:18;15.15;;;6.50;;
32934;SDS011;19292;51.532;7.650;2023-11-21T11:06:44;10.73;;;6.20;;
32934;SDS011;19292;51.532;7.650;2023-11-21T11:09:14;11.07;;;6.88;;
32934;SDS011;19292;51.532;7.650;2023-11-21T11:11:40;15.07;;;8.73;;
32934;SDS011;19292;51.532;7.650;2023-11-21T11:14:12;8.77;;;7.72;;
32934;SDS011;19292;51.532;7.650;2023-11-21T11:16:44;12.98;;;7.30;;
32934;SDS011;19292;51.532;7.650;2023-11-21T11:19:12;11.82;;;7.80;;
32934;SDS011;19292;51.532;7.650;2023-11-21T11:37:57;11.20;;;7.40;;
32934;SDS011;19292;51.532;7.650;2023-11-21T11:40:38;11.90;;;6.63;;
32934;SDS011;19292;51.532;7.650;2023-11-21T11:43:08;11.88;;;6.70;;
32934;SDS011;19292;51.532;7.650;2023-11-21T11:45:34;10.30;;;7.22;;
32934;SDS011;19292;51.532;7.650;2023-11-21T11:48:06;14.23;;;5.30;;
32934;SDS011;19292;51.532;7.650;2023-11-21T11:50:32;9.32;;;5.35;;
32934;SDS011;19292;51.532;7.650;2023-11-21T11:53:11;9.35;;;5.85;;
32934;SDS011;19292;51.532;7.650;2023-11-21T11:55:40;8.02;;;3.85;;
32934;SDS011;19292;51.532;7.650;2023-11-21T11:58:06;7.63;;;5.38;;
32934;SDS011;19292;51.532;7.650;2023-11-21T12:03:00;5.57;;;3.97;;
32934;SDS011;19292;51.532;7.650;2023-11-21T12:05:32;11.48;;;4.00;;
32934;SDS011;19292;51.532;7.650;2023-11-21T12:08:03;6.65;;;3.10;;
32934;SDS011;19292;51.532;7.650;2023-11-21T12:10:33;6.47;;;3.95;;
32934;SDS011;19292;51.532;7.650;2023-11-21T12:13:04;9.75;;;4.20;;
32934;SDS011;19292;51.532;7.650;2023-11-21T12:15:30;8.55;;;3.28;;
32934;SDS011;19292;51.532;7.650;2023-11-21T12:17:58;2.92;;;2.40;;
32934;SDS011;19292;51.532;7.650;2023-11-21T12:20:26;4.45;;;2.80;;
32934;SDS011;19292;51.532;7.650;2023-11-21T12:22:57;5.18;;;2.88;;
32934;SDS011;19292;51.532;7.650;2023-11-21T12:25:27;4.60;;;3.15;;
32934;SDS011;19292;51.532;7.650;2023-11-21T12:27:57;6.30;;;2.80;;
32934;SDS011;19292;51.532;7.650;2023-11-21T12:30:25;5.03;;;3.55;;
32934;SDS011;19292;51.532;7.650;2023-11-21T12:32:53;4.18;;;2.17;;
32934;SDS011;19292;51.532;7.650;2023-11-21T12:35:21;2.42;;;1.63;;
32934;SDS011;19292;51.532;7.650;2023-11-21T12:37:47;4.22;;;2.63;;
32934;SDS011;19292;51.532;7.650;2023-11-21T12:40:14;2.88;;;1.98;;
32934;SDS011;19292;51.532;7.650;2023-11-21T12:42:42;4.18;;;2.88;;
32934;SDS011;19292;51.532;7.650;2023-11-21T12:47:45;5.95;;;2.83;;
32934;SDS011;19292;51.532;7.650;2023-11-21T12:50:14;6.03;;;2.88;;
32934;SDS011;19292;51.532;7.650;2023-11-21T12:52:44;6.80;;;2.95;;
32934;SDS011;19292;51.532;7.650;2023-11-21T12:55:13;2.50;;;1.60;;
32934;SDS011;19292;51.532;7.650;2023-11-21T12:57:43;5.17;;;2.30;;
32934;SDS011;19292;51.532;7.650;2023-11-21T13:00:09;7.05;;;3.22;;
32934;SDS011;19292;51.532;7.650;2023-11-21T13:02:40;2.85;;;2.25;;
32934;SDS011;19292;51.532;7.650;2023-11-21T13:05:07;5.93;;;2.67;;
32934;SDS011;19292;51.532;7.650;2023-11-21T13:07:43;4.20;;;2.40;;
32934;SDS011;19292;51.532;7.650;2023-11-21T13:10:16;5.07;;;2.17;;
32934;SDS011;19292;51.532;7.650;2023-11-21T13:12:45;5.53;;;3.75;;
32934;SDS011;19292;51.532;7.650;2023-11-21T13:15:14;3.33;;;1.98;;
32934;SDS011;19292;51.532;7.650;2023-11-21T13:17:42;4.22;;;2.58;;
32934;SDS011;19292;51.532;7.650;2023-11-21T13:20:15;3.55;;;2.60;;
32934;SDS011;19292;51.532;7.650;2023-11-21T13:22:52;2.58;;;1.42;;
32934;SDS011;19292;51.532;7.650;2023-11-21T13:25:22;3.78;;;1.77;;
32934;SDS011;19292;51.532;7.650;2023-11-21T13:27:47;4.97;;;1.90;;
32934;SDS011;19292;51.532;7.650;2023-11-21T13:30:13;3.38;;;2.22;;
32934;SDS011;19292;51.532;7.650;2023-11-21T13:32:48;5.38;;;2.17;;
32934;SDS011;19292;51.532;7.650;2023-11-21T13:35:16;4.65;;;2.63;;
32934;SDS011;19292;51.532;7.650;2023-11-21T13:37:56;2.85;;;2.58;;
32934;SDS011;19292;51.532;7.650;2023-11-21T13:40:28;3.88;;;1.95;;
32934;SDS011;19292;51.532;7.650;2023-11-21T13:42:54;5.82;;;2.70;;
32934;SDS011;19292;51.532;7.650;2023-11-21T13:45:24;1.33;;;1.23;;
32934;SDS011;19292;51.532;7.650;2023-11-21T13:47:51;5.35;;;2.80;;
32934;SDS011;19292;51.532;7.650;2023-11-21T13:50:20;0.57;;;0.57;;
32934;SDS011;19292;51.532;7.650;2023-11-21T13:52:49;6.78;;;2.97;;
32934;SDS011;19292;51.532;7.650;2023-11-21T13:55:18;2.78;;;2.42;;
32934;SDS011;19292;51.532;7.650;2023-11-21T13:57:50;1.90;;;0.95;;
32934;SDS011;19292;51.532;7.650;2023-11-21T14:00:16;3.97;;;2.28;;
32934;SDS011;19292;51.532;7.650;2023-11-21T14:03:00;2.17;;;1.67;;
32934;SDS011;19292;51.532;7.650;2023-11-21T14:05:27;3.03;;;1.83;;
32934;SDS011;19292;51.532;7.650;2023-11-21T14:07:56;2.30;;;1.13;;
32934;SDS011;19292;51.532;7.650;2023-11-21T14:10:28;1.75;;;1.45;;
32934;SDS011;19292;51.532;7.650;2023-11-21T14:13:04;3.28;;;2.08;;
32934;SDS011;19292;51.532;7.650;2023-11-21T14:15:32;0.85;;;0.55;;
32934;SDS011;19292;51.532;7.650;2023-11-21T14:18:06;2.13;;;1.23;;
32934;SDS011;19292;51.532;7.650;2023-11-21T14:20:36;2.33;;;1.38;;
32934;SDS011;19292;51.532;7.650;2023-11-21T14:23:05;2.63;;;1.38;;
32934;SDS011;19292;51.532;7.650;2023-11-21T14:25:32;1.42;;;0.82;;
32934;SDS011;19292;51.532;7.650;2023-11-21T14:28:02;1.00;;;0.63;;
32934;SDS011;19292;51.532;7.650;2023-11-21T14:30:32;1.10;;;1.00;;
32934;SDS011;19292;51.532;7.650;2023-11-21T14:33:00;2.58;;;1.13;;
32934;SDS011;19292;51.532;7.650;2023-11-21T14:35:26;1.17;;;1.08;;
32934;SDS011;19292;51.532;7.650;2023-11-21T14:37:57;5.97;;;1.88;;
32934;SDS011;19292;51.532;7.650;2023-11-21T14:40:26;1.13;;;0.70;;
32934;SDS011;19292;51.532;7.650;2023-11-21T14:42:56;2.08;;;1.70;;
32934;SDS011;19292;51.532;7.650;2023-11-21T14:45:22;1.27;;;0.65;;
32934;SDS011;19292;51.532;7.650;2023-11-21T14:47:51;1.92;;;1.35;;
32934;SDS011;19292;51.532;7.650;2023-11-21T14:50:35;3.25;;;2.00;;
32934;SDS011;19292;51.532;7.650;2023-11-21T14:53:04;3.33;;;2.63;;
32934;SDS011;19292;51.532;7.650;2023-11-21T14:55:31;4.35;;;3.20;;
32934;SDS011;19292;51.532;7.650;2023-11-21T14:58:04;3.10;;;2.47;;
32934;SDS011;19292;51.532;7.650;2023-11-21T15:00:30;3.15;;;2.22;;
32934;SDS011;19292;51.532;7.650;2023-11-21T15:03:01;2.75;;;2.30;;
32934;SDS011;19292;51.532;7.650;2023-11-21T15:05:27;2.45;;;1.90;;
32934;SDS011;19292;51.532;7.650;2023-11-21T15:07:55;5.13;;;3.38;;
32934;SDS011;19292;51.532;7.650;2023-11-21T15:10:38;3.58;;;2.15;;
32934;SDS011;19292;51.532;7.650;2023-11-21T15:13:16;3.15;;;2.75;;